sensor_id;sensor_type;location;lat;lon;timestamp;pressure;altitude;pressure_sealevel;temperature;humidity
17615;BME280;8926;49.720;6.576;2022-11-02T00:00:39;100064.09;;;12.32;71.45
17615;BME280;8926;49.720;6.576;2022-11-02T00:03:05;100070.25;;;12.31;71.53
17615;BME280;8926;49.720;6.576;2022-11-02T00:05:30;100069.50;;;12.29;71.32
17615;BME280;8926;49.720;6.576;2022-11-02T00:07:56;100078.22;;;12.29;71.38
17615;BME280;8926;49.720;6.576;2022-11-02T00:10:23;100079.06;;;12.30;71.62
17615;BME280;8926;49.720;6.576;2022-11-02T00:12:49;100081.50;;;12.33;71.69
17615;BME280;8926;49.720;6.576;2022-11-02T00:15:15;100081.50;;;12.33;71.80
17615;BME280;8926;49.720;6.576;2022-11-02T00:17:42;100083.44;;;12.29;71.48
17615;BME280;8926;49.720;6.576;2022-11-02T00:20:09;100088.78;;;12.28;71.61
17615;BME280;8926;49.720;6.576;2022-11-02T00:22:36;100086.25;;;12.26;71.91
17615;BME280;8926;49.720;6.576;2022-11-02T00:25:02;100080.16;;;12.26;72.01
17615;BME280;8926;49.720;6.576;2022-11-02T00:27:30;100086.91;;;12.30;71.58
17615;BME280;8926;49.720;6.576;2022-11-02T00:29:56;100088.00;;;12.26;71.71
17615;BME280;8926;49.720;6.576;2022-11-02T00:32:22;100083.72;;;12.24;71.67
17615;BME280;8926;49.720;6.576;2022-11-02T00:34:47;100085.56;;;12.22;71.98
17615;BME280;8926;49.720;6.576;2022-11-02T00:37:12;100088.94;;;12.24;71.85
17615;BME280;8926;49.720;6.576;2022-11-02T00:39:37;100097.94;;;12.20;71.82
17615;BME280;8926;49.720;6.576;2022-11-02T00:42:03;100092.50;;;12.23;72.56
17615;BME280;8926;49.720;6.576;2022-11-02T00:44:28;100099.25;;;12.28;72.30
17615;BME280;8926;49.720;6.576;2022-11-02T00:46:53;100092.81;;;12.33;72.11
17615;BME280;8926;49.720;6.576;2022-11-02T00:49:19;100090.13;;;12.35;71.63
17615;BME280;8926;49.720;6.576;2022-11-02T00:51:45;100098.56;;;12.40;71.45
17615;BME280;8926;49.720;6.576;2022-11-02T00:54:10;100102.09;;;12.39;71.64
17615;BME280;8926;49.720;6.576;2022-11-02T00:56:36;100098.56;;;12.40;72.02
17615;BME280;8926;49.720;6.576;2022-11-02T00:59:03;100096.50;;;12.45;71.82
17615;BME280;8926;49.720;6.576;2022-11-02T01:01:28;100098.19;;;12.46;71.45
17615;BME280;8926;49.720;6.576;2022-11-02T01:03:55;100103.44;;;12.46;71.48
17615;BME280;8926;49.720;6.576;2022-11-02T01:06:21;100101.53;;;12.48;71.77
17615;BME280;8926;49.720;6.576;2022-11-02T01:08:46;100092.75;;;12.49;71.53
17615;BME280;8926;49.720;6.576;2022-11-02T01:11:17;100088.34;;;12.49;71.77
17615;BME280;8926;49.720;6.576;2022-11-02T01:13:43;100084.81;;;12.50;71.47
17615;BME280;8926;49.720;6.576;2022-11-02T01:16:09;100084.16;;;12.47;71.75
17615;BME280;8926;49.720;6.576;2022-11-02T01:18:35;100084.34;;;12.44;72.07
17615;BME280;8926;49.720;6.576;2022-11-02T01:21:01;100073.09;;;12.42;71.84
17615;BME280;8926;49.720;6.576;2022-11-02T01:23:26;100080.97;;;12.42;71.80
17615;BME280;8926;49.720;6.576;2022-11-02T01:25:52;100075.91;;;12.39;72.09
17615;BME280;8926;49.720;6.576;2022-11-02T01:28:17;100074.22;;;12.38;72.15
17615;BME280;8926;49.720;6.576;2022-11-02T01:30:42;100079.47;;;12.38;72.04
17615;BME280;8926;49.720;6.576;2022-11-02T01:33:08;100071.59;;;12.38;72.44
17615;BME280;8926;49.720;6.576;2022-11-02T01:35:35;100077.78;;;12.37;72.46
17615;BME280;8926;49.720;6.576;2022-11-02T01:38:01;100083.19;;;12.34;72.89
17615;BME280;8926;49.720;6.576;2022-11-02T01:40:26;100083.84;;;12.37;73.08
17615;BME280;8926;49.720;6.576;2022-11-02T01:42:51;100088.06;;;12.40;73.40
17615;BME280;8926;49.720;6.576;2022-11-02T01:45:17;100080.97;;;12.42;73.01
17615;BME280;8926;49.720;6.576;2022-11-02T01:47:46;100087.50;;;12.49;72.61
17615;BME280;8926;49.720;6.576;2022-11-02T01:50:17;100078.72;;;12.50;72.42
17615;BME280;8926;49.720;6.576;2022-11-02T01:52:43;100093.59;;;12.49;72.09
17615;BME280;8926;49.720;6.576;2022-11-02T01:55:12;100084.97;;;12.47;72.58
17615;BME280;8926;49.720;6.576;2022-11-02T01:57:43;100085.63;;;12.51;72.77
17615;BME280;8926;49.720;6.576;2022-11-02T02:00:12;100090.88;;;12.51;72.65
17615;BME280;8926;49.720;6.576;2022-11-02T02:02:43;100092.41;;;12.55;72.50
17615;BME280;8926;49.720;6.576;2022-11-02T02:05:12;100078.34;;;12.56;72.51
17615;BME280;8926;49.720;6.576;2022-11-02T02:07:38;100086.97;;;12.58;71.86
17615;BME280;8926;49.720;6.576;2022-11-02T02:10:05;100080.03;;;12.57;72.75
17615;BME280;8926;49.720;6.576;2022-11-02T02:12:32;100081.91;;;12.55;73.16
17615;BME280;8926;49.720;6.576;2022-11-02T02:14:58;100088.16;;;12.52;73.32
17615;BME280;8926;49.720;6.576;2022-11-02T02:20:40;100098.31;;;12.58;74.42
17615;BME280;8926;49.720;6.576;2022-11-02T02:23:34;100100.84;;;12.60;73.99
17615;BME280;8926;49.720;6.576;2022-11-02T02:26:35;100105.91;;;12.63;74.07
17615;BME280;8926;49.720;6.576;2022-11-02T02:29:10;100105.13;;;12.61;73.86
17615;BME280;8926;49.720;6.576;2022-11-02T02:31:54;100103.28;;;12.63;73.00
17615;BME280;8926;49.720;6.576;2022-11-02T02:34:34;100102.53;;;12.61;73.82
17615;BME280;8926;49.720;6.576;2022-11-02T02:37:09;100100.84;;;12.60;73.92
17615;BME280;8926;49.720;6.576;2022-11-02T02:39:39;100102.69;;;12.58;73.60
17615;BME280;8926;49.720;6.576;2022-11-02T02:42:20;100100.06;;;12.58;74.11
17615;BME280;8926;49.720;6.576;2022-11-02T02:45:03;100091.19;;;12.61;73.88
17615;BME280;8926;49.720;6.576;2022-11-02T02:47:32;100097.28;;;12.61;74.13
17615;BME280;8926;49.720;6.576;2022-11-02T02:50:08;100090.16;;;12.63;74.08
17615;BME280;8926;49.720;6.576;2022-11-02T02:52:36;100084.00;;;12.64;74.26
17615;BME280;8926;49.720;6.576;2022-11-02T02:55:03;100079.31;;;12.69;73.78
17615;BME280;8926;49.720;6.576;2022-11-02T02:57:31;100086.16;;;12.72;73.14
17615;BME280;8926;49.720;6.576;2022-11-02T02:59:59;100091.28;;;12.73;74.12
17615;BME280;8926;49.720;6.576;2022-11-02T03:02:27;100094.66;;;12.75;73.92
17615;BME280;8926;49.720;6.576;2022-11-02T03:04:54;100087.56;;;12.77;74.69
17615;BME280;8926;49.720;6.576;2022-11-02T03:07:23;100092.63;;;12.80;73.99
17615;BME280;8926;49.720;6.576;2022-11-02T03:09:55;100086.44;;;12.81;73.81
17615;BME280;8926;49.720;6.576;2022-11-02T03:16:04;100088.50;;;12.90;73.81
17615;BME280;8926;49.720;6.576;2022-11-02T03:18:53;100089.72;;;12.85;74.57
17615;BME280;8926;49.720;6.576;2022-11-02T03:21:35;100094.88;;;12.86;74.24
17615;BME280;8926;49.720;6.576;2022-11-02T03:24:13;100106.13;;;12.88;74.12
17615;BME280;8926;49.720;6.576;2022-11-02T03:29:43;100109.50;;;12.90;74.01
17615;BME280;8926;49.720;6.576;2022-11-02T03:32:21;100098.69;;;12.81;74.14
17615;BME280;8926;49.720;6.576;2022-11-02T03:34:56;100107.84;;;12.74;74.42
17615;BME280;8926;49.720;6.576;2022-11-02T03:37:28;100117.50;;;12.73;74.63
17615;BME280;8926;49.720;6.576;2022-11-02T03:40:06;100110.97;;;12.66;75.01
17615;BME280;8926;49.720;6.576;2022-11-02T03:42:36;100112.66;;;12.67;75.10
17615;BME280;8926;49.720;6.576;2022-11-02T03:45:06;100119.56;;;12.68;75.26
17615;BME280;8926;49.720;6.576;2022-11-02T03:47:35;100110.97;;;12.66;74.93
17615;BME280;8926;49.720;6.576;2022-11-02T03:50:03;100114.50;;;12.65;75.51
17615;BME280;8926;49.720;6.576;2022-11-02T03:52:32;100118.81;;;12.66;75.26
17615;BME280;8926;49.720;6.576;2022-11-02T03:55:08;100123.31;;;12.64;75.50
17615;BME280;8926;49.720;6.576;2022-11-02T03:57:42;100132.28;;;12.60;75.67
17615;BME280;8926;49.720;6.576;2022-11-02T04:00:14;100137.53;;;12.60;75.70
17615;BME280;8926;49.720;6.576;2022-11-02T04:02:42;100134.72;;;12.63;75.63
17615;BME280;8926;49.720;6.576;2022-11-02T04:05:09;100139.72;;;12.68;74.77
17615;BME280;8926;49.720;6.576;2022-11-02T04:07:37;100142.41;;;12.66;75.38
17615;BME280;8926;49.720;6.576;2022-11-02T04:10:22;100146.16;;;12.62;75.77
17615;BME280;8926;49.720;6.576;2022-11-02T04:12:47;100148.59;;;12.65;75.37
17615;BME280;8926;49.720;6.576;2022-11-02T04:15:31;100156.47;;;12.65;75.48
17615;BME280;8926;49.720;6.576;2022-11-02T04:17:56;100162.53;;;12.66;76.12
17615;BME280;8926;49.720;6.576;2022-11-02T04:20:40;100159.16;;;12.64;75.93
17615;BME280;8926;49.720;6.576;2022-11-02T04:23:05;100156.47;;;12.65;75.98
17615;BME280;8926;49.720;6.576;2022-11-02T04:25:53;100163.56;;;12.63;76.05
17615;BME280;8926;49.720;6.576;2022-11-02T04:28:18;100165.25;;;12.64;75.96
17615;BME280;8926;49.720;6.576;2022-11-02T04:30:44;100166.09;;;12.65;76.05
17615;BME280;8926;49.720;6.576;2022-11-02T04:33:09;100167.13;;;12.62;76.27
17615;BME280;8926;49.720;6.576;2022-11-02T04:35:53;100172.53;;;12.59;76.72
17615;BME280;8926;49.720;6.576;2022-11-02T04:38:19;100181.16;;;12.61;76.74
17615;BME280;8926;49.720;6.576;2022-11-02T04:41:03;100196.88;;;12.61;77.18
17615;BME280;8926;49.720;6.576;2022-11-02T04:43:47;100193.16;;;12.65;76.67
17615;BME280;8926;49.720;6.576;2022-11-02T04:46:12;100201.59;;;12.70;76.61
17615;BME280;8926;49.720;6.576;2022-11-02T04:48:37;100208.44;;;12.73;76.91
17615;BME280;8926;49.720;6.576;2022-11-02T04:51:03;100215.47;;;12.72;77.06
17615;BME280;8926;49.720;6.576;2022-11-02T04:53:28;100220.50;;;12.75;76.63
17615;BME280;8926;49.720;6.576;2022-11-02T04:55:53;100217.78;;;12.77;76.71
17615;BME280;8926;49.720;6.576;2022-11-02T04:58:18;100213.22;;;12.80;76.70
17615;BME280;8926;49.720;6.576;2022-11-02T05:00:44;100215.94;;;12.79;76.62
17615;BME280;8926;49.720;6.576;2022-11-02T05:03:09;100210.69;;;12.79;76.42
17615;BME280;8926;49.720;6.576;2022-11-02T05:05:34;100218.09;;;12.72;77.58
17615;BME280;8926;49.720;6.576;2022-11-02T05:07:59;100219.19;;;12.68;78.00
17615;BME280;8926;49.720;6.576;2022-11-02T05:10:25;100224.44;;;12.68;77.08
17615;BME280;8926;49.720;6.576;2022-11-02T05:12:57;100238.00;;;12.75;76.77
17615;BME280;8926;49.720;6.576;2022-11-02T05:15:23;100230.34;;;12.72;77.46
17615;BME280;8926;49.720;6.576;2022-11-02T05:17:48;100238.09;;;12.73;77.47
17615;BME280;8926;49.720;6.576;2022-11-02T05:20:14;100246.91;;;12.72;77.25
17615;BME280;8926;49.720;6.576;2022-11-02T05:22:42;100243.34;;;12.73;77.05
17615;BME280;8926;49.720;6.576;2022-11-02T05:25:10;100239.78;;;12.74;77.45
17615;BME280;8926;49.720;6.576;2022-11-02T05:27:37;100250.38;;;12.73;77.66
17615;BME280;8926;49.720;6.576;2022-11-02T05:30:03;100244.38;;;12.71;77.85
17615;BME280;8926;49.720;6.576;2022-11-02T05:32:29;100241.84;;;12.69;78.26
17615;BME280;8926;49.720;6.576;2022-11-02T05:34:54;100244.19;;;12.74;77.68
17615;BME280;8926;49.720;6.576;2022-11-02T05:37:20;100246.34;;;12.67;77.63
17615;BME280;8926;49.720;6.576;2022-11-02T05:39:45;100252.34;;;12.69;80.52
17615;BME280;8926;49.720;6.576;2022-11-02T05:42:10;100251.41;;;12.70;78.96
17615;BME280;8926;49.720;6.576;2022-11-02T05:44:35;100264.00;;;12.64;78.16
17615;BME280;8926;49.720;6.576;2022-11-02T05:47:02;100261.97;;;12.53;78.23
17615;BME280;8926;49.720;6.576;2022-11-02T05:49:27;100264.84;;;12.48;78.22
17615;BME280;8926;49.720;6.576;2022-11-02T05:51:53;100267.59;;;12.47;77.89
17615;BME280;8926;49.720;6.576;2022-11-02T05:54:19;100271.47;;;12.40;78.60
17615;BME280;8926;49.720;6.576;2022-11-02T05:56:44;100275.03;;;12.39;78.77
17615;BME280;8926;49.720;6.576;2022-11-02T05:59:10;100273.34;;;12.38;78.30
17615;BME280;8926;49.720;6.576;2022-11-02T06:01:35;100278.75;;;12.35;78.54
17615;BME280;8926;49.720;6.576;2022-11-02T06:04:00;100285.84;;;12.33;78.83
17615;BME280;8926;49.720;6.576;2022-11-02T06:06:26;100281.28;;;12.36;79.34
17615;BME280;8926;49.720;6.576;2022-11-02T06:08:51;100290.59;;;12.42;79.08
17615;BME280;8926;49.720;6.576;2022-11-02T06:11:16;100292.28;;;12.43;78.79
17615;BME280;8926;49.720;6.576;2022-11-02T06:13:42;100300.13;;;12.43;78.26
17615;BME280;8926;49.720;6.576;2022-11-02T06:16:09;100302.25;;;12.36;78.68
17615;BME280;8926;49.720;6.576;2022-11-02T06:18:35;100299.03;;;12.31;78.85
17615;BME280;8926;49.720;6.576;2022-11-02T06:21:01;100307.28;;;12.23;79.02
17615;BME280;8926;49.720;6.576;2022-11-02T06:23:27;100309.16;;;12.21;78.97
17615;BME280;8926;49.720;6.576;2022-11-02T06:25:54;100310.28;;;12.17;79.06
17615;BME280;8926;49.720;6.576;2022-11-02T06:28:20;100315.59;;;12.16;79.34
17615;BME280;8926;49.720;6.576;2022-11-02T06:30:46;100314.59;;;12.18;78.91
17615;BME280;8926;49.720;6.576;2022-11-02T06:33:12;100330.63;;;12.12;79.47
17615;BME280;8926;49.720;6.576;2022-11-02T06:35:37;100319.47;;;12.09;79.22
17615;BME280;8926;49.720;6.576;2022-11-02T06:38:02;100322.25;;;12.06;79.66
17615;BME280;8926;49.720;6.576;2022-11-02T06:40:28;100331.72;;;12.08;79.44
17615;BME280;8926;49.720;6.576;2022-11-02T06:42:57;100330.78;;;12.09;78.66
17615;BME280;8926;49.720;6.576;2022-11-02T06:45:23;100333.56;;;12.06;78.99
17615;BME280;8926;49.720;6.576;2022-11-02T06:47:49;100353.59;;;12.07;78.93
17615;BME280;8926;49.720;6.576;2022-11-02T06:50:14;100350.03;;;12.08;78.88
17615;BME280;8926;49.720;6.576;2022-11-02T06:52:44;100353.44;;;12.10;79.49
17615;BME280;8926;49.720;6.576;2022-11-02T06:55:13;100360.03;;;12.17;78.88
17615;BME280;8926;49.720;6.576;2022-11-02T06:57:40;100361.38;;;12.24;78.45
17615;BME280;8926;49.720;6.576;2022-11-02T07:00:09;100359.88;;;12.20;78.51
17615;BME280;8926;49.720;6.576;2022-11-02T07:02:39;100371.38;;;12.18;78.13
17615;BME280;8926;49.720;6.576;2022-11-02T07:05:05;100372.53;;;12.12;78.47
17615;BME280;8926;49.720;6.576;2022-11-02T07:07:30;100382.47;;;12.06;78.76
17615;BME280;8926;49.720;6.576;2022-11-02T07:09:55;100386.34;;;11.99;79.20
17615;BME280;8926;49.720;6.576;2022-11-02T07:12:21;100380.09;;;12.01;79.24
17615;BME280;8926;49.720;6.576;2022-11-02T07:14:46;100396.56;;;12.03;79.45
17615;BME280;8926;49.720;6.576;2022-11-02T07:17:11;100395.50;;;12.07;78.99
17615;BME280;8926;49.720;6.576;2022-11-02T07:19:36;100408.19;;;12.15;78.87
17615;BME280;8926;49.720;6.576;2022-11-02T07:22:02;100405.34;;;12.19;78.82
17615;BME280;8926;49.720;6.576;2022-11-02T07:24:27;100413.63;;;12.28;78.86
17615;BME280;8926;49.720;6.576;2022-11-02T07:26:53;100409.44;;;12.41;78.13
17615;BME280;8926;49.720;6.576;2022-11-02T07:29:18;100414.16;;;12.50;77.69
17615;BME280;8926;49.720;6.576;2022-11-02T07:31:44;100417.81;;;12.63;77.50
17615;BME280;8926;49.720;6.576;2022-11-02T07:34:10;100421.44;;;12.76;76.90
17615;BME280;8926;49.720;6.576;2022-11-02T07:36:36;100428.31;;;12.79;76.63
17615;BME280;8926;49.720;6.576;2022-11-02T07:39:02;100429.91;;;12.81;76.58
17615;BME280;8926;49.720;6.576;2022-11-02T07:41:27;100430.44;;;12.72;76.68
17615;BME280;8926;49.720;6.576;2022-11-02T07:43:52;100427.22;;;12.67;77.04
17615;BME280;8926;49.720;6.576;2022-11-02T07:46:18;100434.00;;;12.71;76.97
17615;BME280;8926;49.720;6.576;2022-11-02T07:48:43;100438.03;;;12.93;76.39
17615;BME280;8926;49.720;6.576;2022-11-02T07:51:08;100448.69;;;13.05;76.05
17615;BME280;8926;49.720;6.576;2022-11-02T07:53:36;100438.91;;;13.24;75.58
17615;BME280;8926;49.720;6.576;2022-11-02T07:56:02;100438.34;;;13.49;75.10
17615;BME280;8926;49.720;6.576;2022-11-02T07:58:28;100441.13;;;14.20;73.21
17615;BME280;8926;49.720;6.576;2022-11-02T08:00:56;100437.78;;;14.47;71.30
17615;BME280;8926;49.720;6.576;2022-11-02T08:03:22;100443.91;;;14.32;71.54
17615;BME280;8926;49.720;6.576;2022-11-02T08:05:47;100451.25;;;14.26;72.50
17615;BME280;8926;49.720;6.576;2022-11-02T08:08:18;100457.88;;;14.04;71.98
17615;BME280;8926;49.720;6.576;2022-11-02T08:10:45;100461.00;;;14.10;72.48
17615;BME280;8926;49.720;6.576;2022-11-02T08:13:21;100461.72;;;14.42;71.43
17615;BME280;8926;49.720;6.576;2022-11-02T08:15:51;100468.72;;;14.27;71.26
17615;BME280;8926;49.720;6.576;2022-11-02T08:18:19;100466.28;;;14.39;71.04
17615;BME280;8926;49.720;6.576;2022-11-02T08:20:46;100463.84;;;14.21;70.57
17615;BME280;8926;49.720;6.576;2022-11-02T08:23:13;100460.63;;;14.16;70.98
17615;BME280;8926;49.720;6.576;2022-11-02T08:25:40;100463.03;;;14.05;70.43
17615;BME280;8926;49.720;6.576;2022-11-02T08:28:07;100464.44;;;13.97;70.83
17615;BME280;8926;49.720;6.576;2022-11-02T08:30:36;100468.56;;;14.59;69.61
17615;BME280;8926;49.720;6.576;2022-11-02T08:33:03;100467.25;;;14.66;68.25
17615;BME280;8926;49.720;6.576;2022-11-02T08:35:29;100460.31;;;14.51;68.33
17615;BME280;8926;49.720;6.576;2022-11-02T08:37:55;100464.88;;;15.17;67.08
17615;BME280;8926;49.720;6.576;2022-11-02T08:40:21;100454.19;;;16.50;63.56
17615;BME280;8926;49.720;6.576;2022-11-02T08:42:46;100458.34;;;15.64;64.57
17615;BME280;8926;49.720;6.576;2022-11-02T08:45:11;100454.44;;;15.30;65.38
17615;BME280;8926;49.720;6.576;2022-11-02T08:47:40;100456.25;;;15.15;66.53
17615;BME280;8926;49.720;6.576;2022-11-02T08:50:07;100460.06;;;14.82;67.22
17615;BME280;8926;49.720;6.576;2022-11-02T08:52:36;100458.00;;;15.28;66.13
17615;BME280;8926;49.720;6.576;2022-11-02T08:55:02;100452.53;;;15.05;66.56
17615;BME280;8926;49.720;6.576;2022-11-02T08:57:28;100456.06;;;14.77;67.51
17615;BME280;8926;49.720;6.576;2022-11-02T08:59:53;100454.81;;;14.97;67.19
17615;BME280;8926;49.720;6.576;2022-11-02T09:02:18;100453.72;;;14.72;67.63
17615;BME280;8926;49.720;6.576;2022-11-02T09:04:43;100448.97;;;14.91;67.58
17615;BME280;8926;49.720;6.576;2022-11-02T09:07:09;100457.63;;;14.93;67.57
17615;BME280;8926;49.720;6.576;2022-11-02T09:09:34;100471.66;;;14.80;67.08
17615;BME280;8926;49.720;6.576;2022-11-02T09:11:59;100480.38;;;14.66;67.67
17615;BME280;8926;49.720;6.576;2022-11-02T09:14:25;100472.03;;;14.74;67.40
17615;BME280;8926;49.720;6.576;2022-11-02T09:16:50;100484.63;;;14.69;67.37
17615;BME280;8926;49.720;6.576;2022-11-02T09:19:15;100486.59;;;14.79;67.48
17615;BME280;8926;49.720;6.576;2022-11-02T09:21:41;100484.69;;;14.81;66.82
17615;BME280;8926;49.720;6.576;2022-11-02T09:24:06;100478.50;;;15.50;65.54
17615;BME280;8926;49.720;6.576;2022-11-02T09:26:32;100482.88;;;16.16;63.61
17615;BME280;8926;49.720;6.576;2022-11-02T09:28:57;100478.84;;;17.47;59.59
17615;BME280;8926;49.720;6.576;2022-11-02T09:31:23;100467.13;;;18.33;57.19
17615;BME280;8926;49.720;6.576;2022-11-02T09:33:48;100467.78;;;18.01;57.17
17615;BME280;8926;49.720;6.576;2022-11-02T09:36:14;100465.44;;;18.31;56.77
17615;BME280;8926;49.720;6.576;2022-11-02T09:38:39;100459.72;;;18.60;54.52
17615;BME280;8926;49.720;6.576;2022-11-02T09:43:46;100459.78;;;19.46;52.38
17615;BME280;8926;49.720;6.576;2022-11-02T09:46:18;100462.75;;;19.85;52.36
17615;BME280;8926;49.720;6.576;2022-11-02T09:48:49;100452.16;;;20.26;50.77
17615;BME280;8926;49.720;6.576;2022-11-02T09:51:20;100458.13;;;19.98;49.02
17615;BME280;8926;49.720;6.576;2022-11-02T09:56:38;100455.25;;;18.83;52.15
17615;BME280;8926;49.720;6.576;2022-11-02T09:59:11;100466.66;;;18.94;52.16
17615;BME280;8926;49.720;6.576;2022-11-02T10:01:59;100466.66;;;18.94;51.72
17615;BME280;8926;49.720;6.576;2022-11-02T10:07:31;100472.41;;;18.33;52.92
17615;BME280;8926;49.720;6.576;2022-11-02T10:10:14;100481.97;;;18.00;53.70
17615;BME280;8926;49.720;6.576;2022-11-02T10:15:14;100482.81;;;17.66;53.09
17615;BME280;8926;49.720;6.576;2022-11-02T10:17:42;100479.22;;;17.67;53.04
17615;BME280;8926;49.720;6.576;2022-11-02T10:20:23;100476.16;;;17.95;52.54
17615;BME280;8926;49.720;6.576;2022-11-02T10:22:53;100461.97;;;18.87;51.29
17615;BME280;8926;49.720;6.576;2022-11-02T10:25:19;100456.16;;;19.15;49.54
17615;BME280;8926;49.720;6.576;2022-11-02T10:27:48;100463.38;;;19.56;51.18
17615;BME280;8926;49.720;6.576;2022-11-02T10:30:19;100464.00;;;20.22;47.02
17615;BME280;8926;49.720;6.576;2022-11-02T10:32:48;100455.19;;;20.73;47.96
17615;BME280;8926;49.720;6.576;2022-11-02T10:37:52;100464.81;;;20.02;45.44
17615;BME280;8926;49.720;6.576;2022-11-02T10:45:47;100446.97;;;20.55;44.48
17615;BME280;8926;49.720;6.576;2022-11-02T10:53:33;100459.97;;;20.49;45.24
17615;BME280;8926;49.720;6.576;2022-11-02T10:56:15;100453.72;;;20.59;45.66
17615;BME280;8926;49.720;6.576;2022-11-02T10:58:59;100454.66;;;20.07;44.97
17615;BME280;8926;49.720;6.576;2022-11-02T11:01:27;100461.28;;;19.92;45.79
17615;BME280;8926;49.720;6.576;2022-11-02T11:04:00;100455.97;;;19.92;46.06
17615;BME280;8926;49.720;6.576;2022-11-02T11:06:38;100446.13;;;19.83;46.93
17615;BME280;8926;49.720;6.576;2022-11-02T11:09:11;100447.69;;;19.64;47.25
17615;BME280;8926;49.720;6.576;2022-11-02T11:11:39;100456.41;;;19.44;47.50
17615;BME280;8926;49.720;6.576;2022-11-02T11:14:12;100451.41;;;19.30;47.42
17615;BME280;8926;49.720;6.576;2022-11-02T11:16:41;100460.00;;;19.11;48.30
17615;BME280;8926;49.720;6.576;2022-11-02T11:21:44;100453.78;;;19.33;47.73
17615;BME280;8926;49.720;6.576;2022-11-02T11:24:29;100457.59;;;19.51;46.88
17615;BME280;8926;49.720;6.576;2022-11-02T11:29:32;100448.91;;;19.49;46.82
17615;BME280;8926;49.720;6.576;2022-11-02T11:31:58;100443.81;;;18.82;47.99
17615;BME280;8926;49.720;6.576;2022-11-02T11:34:27;100453.38;;;18.05;49.91
17615;BME280;8926;49.720;6.576;2022-11-02T11:37:13;100448.47;;;18.12;49.62
17615;BME280;8926;49.720;6.576;2022-11-02T11:39:41;100452.88;;;17.89;49.47
17615;BME280;8926;49.720;6.576;2022-11-02T11:42:18;100445.56;;;17.69;50.21
17615;BME280;8926;49.720;6.576;2022-11-02T11:44:56;100438.19;;;17.85;50.77
17615;BME280;8926;49.720;6.576;2022-11-02T11:47:31;100440.22;;;17.81;50.18
17615;BME280;8926;49.720;6.576;2022-11-02T11:50:09;100439.44;;;18.25;49.84
17615;BME280;8926;49.720;6.576;2022-11-02T11:52:37;100433.00;;;18.63;48.41
17615;BME280;8926;49.720;6.576;2022-11-02T11:55:19;100421.91;;;18.47;49.09
17615;BME280;8926;49.720;6.576;2022-11-02T11:57:45;100427.69;;;18.18;49.47
17615;BME280;8926;49.720;6.576;2022-11-02T12:00:25;100434.41;;;18.22;49.44
17615;BME280;8926;49.720;6.576;2022-11-02T12:03:05;100425.50;;;18.46;49.22
17615;BME280;8926;49.720;6.576;2022-11-02T12:13:41;100428.03;;;17.68;50.66
17615;BME280;8926;49.720;6.576;2022-11-02T12:19:20;100423.28;;;17.01;51.23
17615;BME280;8926;49.720;6.576;2022-11-02T12:25:06;100410.06;;;17.25;51.80
17615;BME280;8926;49.720;6.576;2022-11-02T12:27:40;100413.75;;;17.46;51.55
17615;BME280;8926;49.720;6.576;2022-11-02T12:30:49;100415.44;;;17.47;51.59
17615;BME280;8926;49.720;6.576;2022-11-02T12:33:37;100416.81;;;17.29;51.47
17615;BME280;8926;49.720;6.576;2022-11-02T12:36:11;100407.34;;;17.61;50.73
17615;BME280;8926;49.720;6.576;2022-11-02T12:38:50;100401.53;;;17.80;50.71
17615;BME280;8926;49.720;6.576;2022-11-02T12:41:33;100403.91;;;17.72;50.16
17615;BME280;8926;49.720;6.576;2022-11-02T12:44:29;100396.13;;;17.93;50.50
17615;BME280;8926;49.720;6.576;2022-11-02T12:47:11;100389.41;;;17.89;49.60
17615;BME280;8926;49.720;6.576;2022-11-02T12:55:07;100385.06;;;17.77;49.74
17615;BME280;8926;49.720;6.576;2022-11-02T12:57:37;100382.41;;;17.66;49.55
17615;BME280;8926;49.720;6.576;2022-11-02T13:00:15;100378.97;;;17.52;49.32
17615;BME280;8926;49.720;6.576;2022-11-02T13:03:25;100387.22;;;17.48;49.14
17615;BME280;8926;49.720;6.576;2022-11-02T13:05:55;100389.47;;;17.30;49.53
17615;BME280;8926;49.720;6.576;2022-11-02T13:08:37;100382.50;;;17.29;49.71
17615;BME280;8926;49.720;6.576;2022-11-02T13:11:11;100379.53;;;17.10;49.94
17615;BME280;8926;49.720;6.576;2022-11-02T13:13:46;100383.25;;;17.07;50.76
17615;BME280;8926;49.720;6.576;2022-11-02T13:16:15;100378.91;;;17.06;51.50
17615;BME280;8926;49.720;6.576;2022-11-02T13:18:50;100372.56;;;17.09;51.15
17615;BME280;8926;49.720;6.576;2022-11-02T13:21:31;100365.16;;;17.14;51.33
17615;BME280;8926;49.720;6.576;2022-11-02T13:23:58;100364.91;;;17.17;50.94
17615;BME280;8926;49.720;6.576;2022-11-02T13:26:43;100369.19;;;17.07;51.36
17615;BME280;8926;49.720;6.576;2022-11-02T13:34:36;100369.88;;;16.61;52.22
17615;BME280;8926;49.720;6.576;2022-11-02T13:37:07;100369.34;;;16.56;52.11
17615;BME280;8926;49.720;6.576;2022-11-02T13:39:39;100369.78;;;16.50;52.36
17615;BME280;8926;49.720;6.576;2022-11-02T13:50:39;100356.91;;;16.58;51.92
17615;BME280;8926;49.720;6.576;2022-11-02T13:53:14;100360.91;;;16.51;51.44
17615;BME280;8926;49.720;6.576;2022-11-02T13:55:44;100352.31;;;16.36;51.06
17615;BME280;8926;49.720;6.576;2022-11-02T13:58:24;100348.31;;;16.31;51.72
17615;BME280;8926;49.720;6.576;2022-11-02T14:00:52;100342.94;;;16.32;51.91
17615;BME280;8926;49.720;6.576;2022-11-02T14:03:29;100341.69;;;16.25;51.69
17615;BME280;8926;49.720;6.576;2022-11-02T14:05:58;100344.75;;;16.19;51.94
17615;BME280;8926;49.720;6.576;2022-11-02T14:08:36;100328.06;;;16.18;51.74
17615;BME280;8926;49.720;6.576;2022-11-02T14:19:27;100327.69;;;15.99;52.23
17615;BME280;8926;49.720;6.576;2022-11-02T14:26:56;100326.44;;;15.92;52.78
17615;BME280;8926;49.720;6.576;2022-11-02T14:38:09;100334.75;;;15.86;53.66
17615;BME280;8926;49.720;6.576;2022-11-02T14:48:49;100330.13;;;15.77;54.34
17615;BME280;8926;49.720;6.576;2022-11-02T14:51:19;100327.50;;;15.77;54.54
17615;BME280;8926;49.720;6.576;2022-11-02T14:53:46;100331.94;;;15.76;54.67
17615;BME280;8926;49.720;6.576;2022-11-02T14:56:13;100332.44;;;15.69;54.55